createdAt,value
2022-11-27T00:02:15.490Z,16.10
2022-11-27T00:04:45.065Z,16.10
2022-11-27T00:07:14.975Z,16.10
2022-11-27T00:09:45.011Z,16.20
2022-11-27T00:12:15.080Z,16.10
2022-11-27T00:14:45.214Z,16.10
2022-11-27T00:17:15.043Z,16.20
2022-11-27T00:19:44.507Z,16.30
2022-11-27T00:22:14.712Z,16.30
2022-11-27T00:24:45.498Z,16.20
2022-11-27T00:27:15.456Z,16.10
2022-11-27T00:29:46.577Z,16.00
2022-11-27T00:32:16.617Z,16.10
2022-11-27T00:34:46.582Z,16.20
2022-11-27T00:37:19.997Z,16.10
2022-11-27T00:39:57.616Z,16.10
2022-11-27T00:42:27.594Z,16.10
2022-11-27T00:44:57.044Z,16.20
2022-11-27T00:47:26.642Z,16.20
2022-11-27T00:49:56.520Z,16.30
2022-11-27T00:52:26.466Z,16.20
2022-11-27T00:54:56.693Z,16.30
2022-11-27T00:57:27.121Z,16.20
2022-11-27T00:59:57.190Z,16.20
2022-11-27T01:02:27.082Z,16.20
2022-11-27T01:04:57.184Z,16.40
2022-11-27T01:07:28.331Z,16.40
2022-11-27T01:09:59.887Z,16.40
2022-11-27T01:12:32.624Z,17.50
2022-11-27T01:15:02.523Z,18.00
2022-11-27T01:17:32.546Z,18.20
2022-11-27T01:20:02.218Z,18.30
2022-11-27T01:22:31.786Z,18.50
2022-11-27T01:25:01.234Z,18.30
2022-11-27T01:27:31.453Z,18.30
2022-11-27T01:30:01.112Z,18.40
2022-11-27T01:32:31.116Z,18.40
2022-11-27T01:35:00.708Z,18.30
2022-11-27T01:37:30.206Z,18.50
2022-11-27T01:40:00.123Z,18.50
2022-11-27T01:42:29.664Z,18.50
2022-11-27T01:44:59.980Z,18.60
2022-11-27T01:47:35.766Z,18.70
2022-11-27T01:50:15.482Z,18.60
2022-11-27T01:52:48.639Z,18.50
2022-11-27T01:55:31.571Z,18.60
2022-11-27T01:58:05.984Z,18.70
2022-11-27T02:00:37.706Z,18.90
2022-11-27T02:03:07.830Z,18.90
2022-11-27T02:05:37.669Z,19.00
2022-11-27T02:08:12.542Z,19.00
2022-11-27T02:11:05.948Z,18.90
2022-11-27T02:13:47.168Z,19.00
2022-11-27T02:16:32.979Z,19.00
2022-11-27T02:19:29.184Z,19.10
2022-11-27T02:22:32.774Z,19.10
2022-11-27T02:25:53.202Z,19.10
2022-11-27T02:28:28.465Z,19.10
2022-11-27T02:31:11.805Z,19.20
2022-11-27T02:33:42.405Z,19.30
2022-11-27T02:36:15.340Z,19.20
2022-11-27T02:38:57.315Z,19.20
2022-11-27T02:41:30.211Z,19.30
2022-11-27T02:44:00.189Z,19.20
2022-11-27T02:46:29.923Z,19.30
2022-11-27T02:49:02.613Z,19.30
2022-11-27T02:51:40.162Z,19.30
2022-11-27T02:54:13.047Z,19.30
2022-11-27T02:56:42.611Z,19.40
2022-11-27T02:59:13.995Z,19.40
2022-11-27T03:01:46.675Z,19.40
2022-11-27T03:04:19.102Z,19.60
2022-11-27T03:06:51.158Z,19.50
2022-11-27T03:09:33.404Z,19.40
2022-11-27T03:12:04.813Z,19.30
2022-11-27T03:14:36.246Z,19.70
2022-11-27T03:17:29.250Z,19.60
2022-11-27T03:20:10.769Z,19.80
2022-11-27T03:22:40.359Z,19.70
2022-11-27T03:25:10.317Z,19.80
2022-11-27T03:27:50.252Z,19.80
2022-11-27T03:30:20.957Z,19.80
2022-11-27T03:32:50.448Z,19.80
2022-11-27T03:35:23.031Z,19.80
2022-11-27T03:37:53.103Z,19.90
2022-11-27T03:40:22.910Z,19.80
2022-11-27T03:43:14.017Z,19.80
2022-11-27T03:46:16.732Z,19.80
2022-11-27T03:48:59.354Z,20.00
2022-11-27T03:51:43.039Z,20.10
2022-11-27T03:54:33.145Z,20.10
2022-11-27T03:57:19.103Z,20.20
2022-11-27T03:59:51.505Z,20.20
2022-11-27T04:02:32.160Z,20.10
2022-11-27T04:05:02.098Z,20.00
2022-11-27T04:07:32.185Z,20.10
2022-11-27T04:10:02.211Z,20.10
2022-11-27T04:12:32.379Z,20.30
2022-11-27T04:15:02.005Z,20.20
2022-11-27T04:17:31.452Z,20.10
2022-11-27T04:20:01.100Z,20.10
2022-11-27T04:22:30.668Z,20.20
2022-11-27T04:25:00.577Z,20.30
2022-11-27T04:27:30.631Z,20.30
2022-11-27T04:30:00.727Z,20.10
2022-11-27T04:32:30.650Z,20.20
2022-11-27T04:35:00.175Z,20.10
2022-11-27T04:37:30.373Z,20.10
2022-11-27T04:40:00.107Z,20.10
2022-11-27T04:42:29.611Z,20.10
2022-11-27T04:44:59.689Z,20.20
2022-11-27T04:47:29.885Z,20.10
2022-11-27T04:49:59.864Z,20.10
2022-11-27T04:52:29.919Z,20.20
2022-11-27T04:55:00.492Z,20.40
2022-11-27T04:57:30.657Z,20.40
2022-11-27T05:00:00.430Z,20.30
2022-11-27T05:02:30.440Z,20.20
2022-11-27T05:05:00.503Z,20.20
2022-11-27T05:07:30.497Z,20.10
2022-11-27T05:10:00.054Z,20.40
2022-11-27T05:12:30.096Z,20.70
2022-11-27T05:15:04.159Z,20.70
2022-11-27T05:17:34.641Z,20.70
2022-11-27T05:20:08.914Z,20.70
2022-11-27T05:22:38.905Z,20.60
2022-11-27T05:25:09.080Z,20.50
2022-11-27T05:27:38.579Z,20.70
2022-11-27T05:30:09.264Z,20.80
2022-11-27T05:32:39.399Z,20.90
2022-11-27T05:35:09.135Z,20.90
2022-11-27T05:37:38.639Z,20.80
2022-11-27T05:40:08.846Z,20.90
2022-11-27T05:42:38.815Z,20.90
2022-11-27T05:45:08.920Z,21.00
2022-11-27T05:47:38.465Z,21.00
2022-11-27T05:50:09.007Z,21.00
2022-11-27T05:52:39.035Z,21.10
2022-11-27T05:55:10.234Z,20.90
2022-11-27T05:57:44.734Z,20.90
2022-11-27T06:00:14.972Z,21.00
2022-11-27T06:02:45.037Z,20.90
2022-11-27T06:05:14.779Z,21.00
2022-11-27T06:07:44.788Z,21.00
2022-11-27T06:10:14.523Z,21.00
2022-11-27T06:12:44.507Z,20.90
2022-11-27T06:15:14.048Z,20.90
2022-11-27T06:17:43.746Z,21.00
2022-11-27T06:20:16.536Z,21.00
2022-11-27T06:22:47.079Z,20.90
2022-11-27T06:25:16.543Z,20.90
2022-11-27T06:27:46.537Z,21.00
2022-11-27T06:30:16.313Z,20.90
2022-11-27T06:32:46.230Z,20.80
2022-11-27T06:35:16.233Z,20.90
2022-11-27T06:37:46.205Z,20.90
2022-11-27T06:40:16.252Z,20.90
2022-11-27T06:42:46.345Z,20.90
2022-11-27T06:45:16.023Z,20.90
2022-11-27T06:47:46.146Z,20.90
2022-11-27T06:50:16.134Z,21.00
2022-11-27T06:52:46.146Z,20.90
2022-11-27T06:55:16.189Z,20.90
2022-11-27T06:57:45.813Z,21.00
2022-11-27T07:00:17.726Z,20.90
2022-11-27T07:02:47.462Z,20.90
2022-11-27T07:05:17.374Z,20.80
2022-11-27T07:07:47.329Z,20.80
2022-11-27T07:10:18.765Z,20.90
2022-11-27T07:12:48.560Z,20.90
2022-11-27T07:15:18.026Z,20.70
2022-11-27T07:17:47.955Z,20.80
2022-11-27T07:20:18.130Z,20.70
2022-11-27T07:22:48.199Z,20.80
2022-11-27T07:25:17.874Z,20.70
2022-11-27T07:27:47.829Z,20.80
2022-11-27T07:30:17.945Z,20.80
2022-11-27T07:32:48.173Z,20.90
2022-11-27T07:35:17.954Z,20.90
2022-11-27T07:37:47.527Z,20.70
2022-11-27T07:40:19.349Z,20.60
2022-11-27T07:42:49.634Z,20.50
2022-11-27T07:45:19.964Z,20.70
2022-11-27T07:47:49.641Z,20.80
2022-11-27T07:50:19.191Z,20.90
2022-11-27T07:52:48.677Z,20.80
2022-11-27T07:55:18.700Z,20.90
2022-11-27T07:57:49.017Z,20.80
2022-11-27T08:00:19.461Z,21.00
2022-11-27T08:02:49.084Z,21.00
2022-11-27T08:05:18.669Z,20.90
2022-11-27T08:07:48.715Z,20.90
2022-11-27T08:10:18.331Z,20.90
2022-11-27T08:12:48.402Z,20.90
2022-11-27T08:15:18.600Z,20.90
2022-11-27T08:17:48.571Z,20.90
2022-11-27T08:20:20.474Z,20.80
2022-11-27T08:22:50.496Z,20.80
2022-11-27T08:25:20.185Z,20.80
2022-11-27T08:27:50.458Z,20.70
2022-11-27T08:30:20.080Z,20.80
2022-11-27T08:32:49.898Z,20.80
2022-11-27T08:35:20.019Z,20.70
2022-11-27T08:37:49.682Z,20.60
2022-11-27T08:40:19.637Z,20.60
2022-11-27T08:42:49.841Z,20.60
2022-11-27T08:45:20.378Z,20.60
2022-11-27T08:47:50.528Z,20.70
2022-11-27T08:50:20.606Z,20.70
2022-11-27T08:52:50.355Z,20.80
2022-11-27T08:55:19.894Z,20.60
2022-11-27T08:57:49.353Z,20.60
2022-11-27T09:00:23.608Z,20.70
2022-11-27T09:02:56.012Z,20.60
2022-11-27T09:05:25.471Z,20.70
2022-11-27T09:07:55.011Z,20.70
2022-11-27T09:10:25.155Z,20.70
2022-11-27T09:12:56.899Z,20.70
2022-11-27T09:15:27.132Z,20.70
2022-11-27T09:17:56.783Z,20.70
2022-11-27T09:20:26.690Z,20.80
2022-11-27T09:22:56.550Z,20.70
2022-11-27T09:25:26.391Z,20.70
2022-11-27T09:27:57.956Z,20.70
2022-11-27T09:30:28.185Z,20.70
2022-11-27T09:32:57.788Z,20.70
2022-11-27T09:35:27.396Z,20.70
2022-11-27T09:37:57.289Z,20.70
2022-11-27T09:40:27.375Z,20.80
2022-11-27T09:43:10.810Z,20.80
2022-11-27T09:45:57.436Z,20.50
2022-11-27T09:48:34.625Z,20.40
2022-11-27T09:51:06.322Z,20.50
2022-11-27T09:53:57.486Z,20.30
2022-11-27T09:56:27.327Z,20.40
2022-11-27T09:58:58.618Z,20.60
2022-11-27T10:01:44.240Z,20.60
2022-11-27T10:04:19.339Z,20.60
2022-11-27T10:07:13.848Z,20.60
2022-11-27T10:09:55.934Z,20.50
2022-11-27T10:12:31.639Z,20.50
2022-11-27T10:15:59.235Z,20.30
2022-11-27T10:18:49.176Z,20.60
2022-11-27T10:21:56.322Z,20.70
2022-11-27T10:24:26.348Z,17.10
2022-11-27T10:26:56.360Z,12.90
2022-11-27T10:29:29.149Z,11.80
2022-11-27T10:35:22.880Z,14.90
2022-11-27T10:38:07.009Z,17.00
2022-11-27T10:40:42.961Z,17.70
2022-11-27T10:43:18.997Z,18.30
2022-11-27T10:45:59.321Z,18.60
2022-11-27T10:48:30.765Z,18.90
2022-11-27T10:51:01.523Z,19.20
2022-11-27T10:53:36.815Z,19.30
2022-11-27T10:56:21.890Z,19.30
2022-11-27T10:59:21.119Z,19.50
2022-11-27T11:01:52.060Z,19.50
2022-11-27T11:04:38.090Z,19.50
2022-11-27T11:07:29.321Z,19.60
2022-11-27T11:09:59.340Z,19.50
2022-11-27T11:12:28.929Z,19.60
2022-11-27T11:15:02.308Z,19.50
2022-11-27T11:17:41.647Z,19.60
2022-11-27T11:20:23.923Z,19.60
2022-11-27T11:22:53.681Z,19.70
2022-11-27T11:25:24.027Z,19.70
2022-11-27T11:28:01.508Z,19.70
2022-11-27T11:30:31.589Z,19.80
2022-11-27T11:33:12.611Z,19.70
2022-11-27T11:35:42.244Z,19.70
2022-11-27T11:38:21.139Z,19.80
2022-11-27T11:41:07.638Z,19.70
2022-11-27T11:43:38.366Z,19.70
2022-11-27T11:46:20.516Z,19.70
2022-11-27T11:49:09.088Z,19.60
2022-11-27T11:51:55.908Z,19.60
2022-11-27T11:54:33.867Z,19.50
2022-11-27T11:57:04.705Z,19.60
2022-11-27T11:59:42.110Z,19.50
2022-11-27T12:02:21.067Z,19.60
2022-11-27T12:05:08.835Z,19.60
2022-11-27T12:08:10.937Z,19.50
2022-11-27T12:11:08.881Z,19.60
2022-11-27T12:14:15.475Z,19.50
2022-11-27T12:17:32.502Z,19.50
2022-11-27T12:20:33.048Z,19.40
2022-11-27T12:23:18.648Z,19.50
2022-11-27T12:26:33.432Z,19.50
2022-11-27T12:29:14.508Z,19.60
2022-11-27T12:31:59.944Z,19.50
2022-11-27T12:34:41.253Z,19.60
2022-11-27T12:37:29.531Z,19.60
2022-11-27T12:40:02.561Z,19.50
2022-11-27T12:42:46.069Z,19.60
2022-11-27T12:45:24.555Z,19.50
2022-11-27T12:48:16.937Z,19.50
2022-11-27T12:50:50.759Z,19.50
2022-11-27T12:53:38.848Z,19.50
2022-11-27T12:56:28.649Z,19.50
2022-11-27T12:59:08.652Z,19.60
2022-11-27T13:01:47.043Z,19.50
2022-11-27T13:04:32.186Z,19.40
2022-11-27T13:07:11.192Z,19.60
2022-11-27T13:10:07.531Z,19.50
2022-11-27T13:12:51.629Z,19.50
2022-11-27T13:15:32.116Z,19.50
2022-11-27T13:18:51.846Z,19.50
2022-11-27T13:21:24.606Z,19.50
2022-11-27T13:24:01.530Z,19.40
2022-11-27T13:26:36.438Z,19.50
2022-11-27T13:29:09.222Z,19.50
2022-11-27T13:31:39.869Z,19.40
2022-11-27T13:34:28.885Z,19.40
2022-11-27T13:37:09.533Z,19.40
2022-11-27T13:39:40.956Z,19.40
2022-11-27T13:42:13.687Z,19.50
2022-11-27T13:44:53.495Z,19.50
2022-11-27T13:47:24.697Z,19.50
2022-11-27T13:50:16.986Z,19.50
2022-11-27T13:53:15.357Z,19.50
2022-11-27T13:55:54.500Z,19.50
2022-11-27T13:58:40.677Z,19.50
2022-11-27T14:01:21.047Z,19.40
2022-11-27T14:03:51.313Z,19.50
2022-11-27T14:06:26.870Z,19.40
2022-11-27T14:09:00.773Z,19.50
2022-11-27T14:11:51.982Z,19.50
2022-11-27T14:14:22.946Z,19.40
2022-11-27T14:17:00.304Z,19.50
2022-11-27T14:19:42.726Z,19.40
2022-11-27T14:23:07.058Z,19.40
2022-11-27T14:25:36.951Z,19.40
2022-11-27T14:28:28.491Z,19.40
2022-11-27T14:31:00.873Z,19.40
2022-11-27T14:33:59.769Z,19.40
2022-11-27T14:36:27.069Z,19.40
2022-11-27T14:39:01.719Z,19.40
2022-11-27T14:41:33.552Z,19.40
2022-11-27T14:44:07.255Z,19.40
2022-11-27T14:46:38.207Z,19.40
2022-11-27T14:49:07.745Z,19.40
2022-11-27T14:51:38.598Z,19.30
2022-11-27T14:54:28.272Z,19.30
2022-11-27T14:56:57.692Z,19.40
2022-11-27T14:59:27.358Z,19.40
2022-11-27T15:02:04.804Z,19.40
2022-11-27T15:05:02.528Z,19.30
2022-11-27T15:07:35.301Z,19.50
2022-11-27T15:10:18.075Z,19.40
2022-11-27T15:12:48.542Z,19.40
2022-11-27T15:15:23.893Z,19.40
2022-11-27T15:17:59.856Z,19.40
2022-11-27T15:20:39.288Z,19.40
2022-11-27T15:23:29.192Z,19.40
2022-11-27T15:26:09.571Z,19.40
2022-11-27T15:28:42.021Z,19.30
2022-11-27T15:31:33.754Z,19.30
2022-11-27T15:34:15.944Z,19.40
2022-11-27T15:36:55.806Z,19.30
2022-11-27T15:39:32.258Z,19.30
2022-11-27T15:42:03.660Z,19.30
2022-11-27T15:44:34.425Z,19.30
2022-11-27T15:47:04.855Z,19.40
2022-11-27T15:49:35.766Z,19.30
2022-11-27T15:52:06.164Z,19.30
2022-11-27T15:54:35.722Z,19.20
2022-11-27T15:57:05.193Z,19.20
2022-11-27T15:59:34.803Z,19.30
2022-11-27T16:02:04.797Z,19.20
2022-11-27T16:04:34.960Z,19.30
2022-11-27T16:07:04.918Z,19.30
2022-11-27T16:09:35.196Z,19.20
2022-11-27T16:12:05.489Z,19.30
2022-11-27T16:14:35.068Z,19.30
2022-11-27T16:17:05.173Z,19.30
2022-11-27T16:19:34.849Z,19.30
2022-11-27T16:22:04.448Z,19.30
2022-11-27T16:24:34.424Z,19.30
2022-11-27T16:27:04.024Z,19.30
2022-11-27T16:29:33.564Z,19.20
2022-11-27T16:32:03.800Z,19.20
2022-11-27T16:34:33.769Z,19.20
2022-11-27T16:37:03.188Z,19.10
2022-11-27T16:39:33.141Z,19.20
2022-11-27T16:42:03.159Z,19.20
2022-11-27T16:44:33.303Z,19.20
2022-11-27T16:47:03.310Z,19.20
2022-11-27T16:49:33.397Z,19.20
2022-11-27T16:52:04.232Z,19.20
2022-11-27T16:54:34.888Z,19.20
2022-11-27T16:57:05.904Z,19.30
2022-11-27T16:59:39.279Z,19.20
2022-11-27T17:02:10.925Z,19.20
2022-11-27T17:04:41.375Z,19.20
2022-11-27T17:07:11.649Z,19.10
2022-11-27T17:09:42.980Z,19.10
2022-11-27T17:12:13.044Z,19.20
2022-11-27T17:14:44.822Z,19.20
2022-11-27T17:17:15.955Z,19.10
2022-11-27T17:19:46.985Z,19.20
2022-11-27T17:22:17.219Z,19.20
2022-11-27T17:24:47.572Z,19.20
2022-11-27T17:27:19.137Z,19.20
2022-11-27T17:29:49.598Z,19.20
2022-11-27T17:32:21.421Z,19.20
2022-11-27T17:34:50.920Z,19.20
2022-11-27T17:37:21.315Z,19.20
2022-11-27T17:39:51.537Z,19.20
2022-11-27T17:42:22.843Z,19.10
2022-11-27T17:44:53.236Z,19.10
2022-11-27T17:47:22.850Z,19.20
2022-11-27T17:49:53.107Z,19.10
2022-11-27T17:52:23.130Z,19.10
2022-11-27T17:54:53.718Z,19.10
2022-11-27T17:57:24.324Z,19.10
2022-11-27T17:59:55.556Z,19.20
2022-11-27T18:02:25.737Z,19.10
2022-11-27T18:04:55.481Z,19.10
2022-11-27T18:07:27.347Z,19.10
2022-11-27T18:09:58.297Z,19.10
2022-11-27T18:12:27.903Z,19.10
2022-11-27T18:15:01.241Z,19.10
2022-11-27T18:17:32.950Z,19.20
2022-11-27T18:20:04.275Z,19.20
2022-11-27T18:22:34.236Z,19.10
2022-11-27T18:25:04.337Z,19.20
2022-11-27T18:27:34.316Z,19.10
2022-11-27T18:30:05.869Z,19.20
2022-11-27T18:32:38.293Z,19.10
2022-11-27T18:35:08.692Z,19.10
2022-11-27T18:37:39.727Z,19.10
2022-11-27T18:40:10.561Z,19.10
2022-11-27T18:42:40.947Z,19.00
2022-11-27T18:45:31.247Z,19.10
2022-11-27T18:48:01.415Z,19.10
2022-11-27T18:50:31.697Z,19.10
2022-11-27T18:53:01.748Z,19.10
2022-11-27T18:55:35.855Z,19.10
2022-11-27T18:58:05.544Z,19.00
2022-11-27T19:00:36.756Z,19.00
2022-11-27T19:03:07.970Z,19.10
2022-11-27T19:05:37.587Z,19.00
2022-11-27T19:08:09.611Z,19.10
2022-11-27T19:10:40.494Z,19.00
2022-11-27T19:13:10.473Z,19.10
2022-11-27T19:15:42.586Z,19.00
2022-11-27T19:18:12.404Z,19.00
2022-11-27T19:20:43.242Z,19.00
2022-11-27T19:23:14.089Z,19.10
2022-11-27T19:25:44.523Z,19.10
2022-11-27T19:28:14.835Z,19.00
2022-11-27T19:30:45.074Z,19.00
2022-11-27T19:33:14.906Z,19.00
2022-11-27T19:35:44.438Z,18.90
2022-11-27T19:38:14.372Z,18.90
2022-11-27T19:40:43.950Z,18.80
2022-11-27T19:43:13.844Z,18.90
2022-11-27T19:45:43.978Z,19.00
2022-11-27T19:48:13.453Z,19.10
2022-11-27T19:50:43.438Z,19.10
2022-11-27T19:53:14.107Z,19.10
2022-11-27T19:55:44.107Z,19.00
2022-11-27T19:58:15.061Z,19.00
2022-11-27T20:00:45.790Z,19.00
2022-11-27T20:03:15.851Z,19.00
2022-11-27T20:05:45.896Z,19.00
2022-11-27T20:08:16.247Z,19.00
2022-11-27T20:10:51.006Z,19.00
2022-11-27T20:13:21.286Z,19.00
2022-11-27T20:15:51.646Z,19.00
2022-11-27T20:18:22.476Z,19.00
2022-11-27T20:20:52.318Z,18.90
2022-11-27T20:23:23.052Z,19.00
2022-11-27T20:25:54.066Z,18.90
2022-11-27T20:28:24.294Z,19.00
2022-11-27T20:31:02.078Z,18.90
2022-11-27T20:33:34.239Z,18.80
2022-11-27T20:36:05.854Z,18.80
2022-11-27T20:38:35.491Z,18.80
2022-11-27T20:41:12.232Z,18.80
2022-11-27T20:43:44.218Z,18.90
2022-11-27T20:46:16.665Z,19.00
2022-11-27T20:48:50.514Z,18.90
2022-11-27T20:51:22.159Z,18.80
2022-11-27T20:53:53.056Z,18.90
2022-11-27T20:56:23.656Z,18.80
2022-11-27T20:58:53.711Z,18.80
2022-11-27T21:01:33.419Z,18.80
2022-11-27T21:04:10.127Z,18.90
2022-11-27T21:06:44.015Z,18.80
2022-11-27T21:09:16.312Z,18.90
2022-11-27T21:11:48.082Z,18.90
2022-11-27T21:14:18.488Z,18.70
2022-11-27T21:16:50.959Z,18.70
2022-11-27T21:19:24.676Z,18.90
2022-11-27T21:21:55.276Z,18.80
2022-11-27T21:24:27.451Z,18.80
2022-11-27T21:26:58.051Z,18.80
2022-11-27T21:29:28.571Z,18.80
2022-11-27T21:31:59.288Z,18.80
2022-11-27T21:34:30.083Z,18.70
2022-11-27T21:37:01.366Z,18.80
2022-11-27T21:39:30.943Z,18.90
2022-11-27T21:42:00.876Z,18.80
2022-11-27T21:44:30.713Z,18.80
2022-11-27T21:47:00.929Z,18.80
2022-11-27T21:49:31.511Z,18.80
2022-11-27T21:52:02.319Z,18.90
2022-11-27T21:54:35.021Z,18.80
2022-11-27T21:57:05.350Z,18.70
2022-11-27T21:59:35.759Z,18.80
2022-11-27T22:02:06.065Z,18.80
2022-11-27T22:04:36.552Z,18.70
2022-11-27T22:07:06.119Z,18.70
2022-11-27T22:09:35.747Z,18.80
2022-11-27T22:12:05.864Z,18.90
2022-11-27T22:14:35.574Z,18.80
2022-11-27T22:17:05.071Z,18.80
2022-11-27T22:19:37.418Z,18.80
2022-11-27T22:22:08.952Z,18.80
2022-11-27T22:24:39.814Z,18.70
2022-11-27T22:27:10.345Z,18.70
2022-11-27T22:29:40.613Z,18.70
2022-11-27T22:32:12.113Z,18.60
2022-11-27T22:34:42.422Z,18.60
2022-11-27T22:37:12.493Z,18.70
2022-11-27T22:39:42.516Z,18.60
2022-11-27T22:42:12.975Z,18.50
2022-11-27T22:44:43.317Z,18.60
2022-11-27T22:47:13.513Z,18.70
2022-11-27T22:49:43.941Z,18.60
2022-11-27T22:52:15.585Z,18.60
2022-11-27T22:54:45.845Z,18.50
2022-11-27T22:57:16.241Z,18.50
2022-11-27T22:59:46.013Z,18.50
2022-11-27T23:02:16.013Z,18.60
2022-11-27T23:04:46.115Z,18.60
2022-11-27T23:07:18.729Z,18.60
2022-11-27T23:09:51.058Z,18.50
2022-11-27T23:12:21.363Z,18.60
2022-11-27T23:14:51.545Z,18.50
2022-11-27T23:17:21.030Z,18.50
2022-11-27T23:19:51.297Z,18.60
2022-11-27T23:22:21.410Z,18.60
2022-11-27T23:24:50.981Z,18.60
2022-11-27T23:27:20.445Z,18.60
2022-11-27T23:29:49.944Z,18.60
2022-11-27T23:32:19.516Z,18.60
2022-11-27T23:34:49.653Z,18.60
2022-11-27T23:37:19.712Z,18.50
2022-11-27T23:39:49.283Z,18.50
2022-11-27T23:42:19.227Z,18.60
2022-11-27T23:44:48.937Z,18.60
2022-11-27T23:47:18.342Z,18.50
2022-11-27T23:49:47.718Z,18.40
2022-11-27T23:52:17.735Z,18.50
2022-11-27T23:54:47.300Z,18.40
2022-11-27T23:57:16.791Z,18.40
2022-11-27T23:59:46.861Z,18.40
